createdAt,value
2022-11-02T00:01:29.682Z,2.00
2022-11-02T00:03:57.625Z,2.20
2022-11-02T00:06:25.535Z,1.73
2022-11-02T00:08:53.407Z,1.80
2022-11-02T00:11:21.245Z,1.53
2022-11-02T00:13:49.100Z,1.70
2022-11-02T00:16:19.420Z,1.77
2022-11-02T00:18:51.240Z,2.30
2022-11-02T00:21:21.491Z,1.77
2022-11-02T00:23:50.226Z,1.57
2022-11-02T00:26:18.625Z,1.60
2022-11-02T00:28:46.636Z,1.47
2022-11-02T00:31:14.455Z,1.77
2022-11-02T00:33:42.276Z,1.20
2022-11-02T00:36:11.826Z,1.67
2022-11-02T00:38:39.680Z,1.80
2022-11-02T00:41:07.742Z,2.00
2022-11-02T00:43:35.869Z,1.67
2022-11-02T00:46:03.795Z,1.60
2022-11-02T00:48:31.873Z,1.93
2022-11-02T00:50:59.737Z,2.07
2022-11-02T00:53:29.134Z,1.70
2022-11-02T00:55:57.007Z,1.80
2022-11-02T00:58:24.825Z,1.90
2022-11-02T01:00:52.812Z,2.03
2022-11-02T01:03:20.645Z,1.70
2022-11-02T01:05:48.502Z,1.57
2022-11-02T01:08:16.383Z,1.87
2022-11-02T01:10:48.206Z,1.63
2022-11-02T01:13:16.435Z,1.50
2022-11-02T01:15:44.334Z,2.07
2022-11-02T01:18:12.163Z,1.60
2022-11-02T01:20:39.994Z,1.63
2022-11-02T01:23:07.836Z,2.20
2022-11-02T01:25:35.696Z,1.70
2022-11-02T01:28:05.296Z,1.50
2022-11-02T01:30:33.834Z,1.67
2022-11-02T01:33:01.693Z,1.97
2022-11-02T01:35:29.549Z,1.83
2022-11-02T01:37:57.385Z,1.63
2022-11-02T01:40:26.216Z,1.53
2022-11-02T01:42:54.342Z,1.90
2022-11-02T01:45:23.576Z,1.70
2022-11-02T01:47:51.410Z,1.53
2022-11-02T01:50:22.836Z,2.60
2022-11-02T01:52:50.721Z,2.07
2022-11-02T01:55:23.726Z,1.70
2022-11-02T01:57:57.268Z,2.10
2022-11-02T02:00:26.521Z,1.73
2022-11-02T02:02:57.781Z,1.97
2022-11-02T02:05:26.661Z,1.70
2022-11-02T02:07:54.865Z,1.97
2022-11-02T02:10:22.912Z,1.97
2022-11-02T02:12:51.213Z,1.50
2022-11-02T02:15:19.402Z,1.80
2022-11-02T02:17:55.139Z,1.53
2022-11-02T02:20:40.804Z,2.03
2022-11-02T02:23:46.035Z,1.90
2022-11-02T02:26:34.232Z,2.10
2022-11-02T02:29:08.852Z,1.60
2022-11-02T02:31:41.306Z,2.07
2022-11-02T02:34:16.614Z,1.67
2022-11-02T02:36:48.736Z,1.53
2022-11-02T02:39:21.233Z,1.47
2022-11-02T02:41:58.281Z,1.57
2022-11-02T02:44:29.912Z,1.63
2022-11-02T02:47:01.803Z,1.77
2022-11-02T02:49:34.782Z,1.80
2022-11-02T02:52:03.851Z,1.40
2022-11-02T02:54:37.223Z,1.53
2022-11-02T02:57:12.094Z,1.73
2022-11-02T02:59:43.470Z,1.53
2022-11-02T03:02:22.857Z,2.27
2022-11-02T03:04:50.795Z,1.80
2022-11-02T03:07:25.064Z,1.73
2022-11-02T03:10:05.976Z,1.50
2022-11-02T03:12:40.337Z,1.77
2022-11-02T03:15:19.493Z,2.00
2022-11-02T03:17:57.343Z,2.17
2022-11-02T03:20:29.493Z,2.07
2022-11-02T03:23:11.308Z,2.00
2022-11-02T03:25:47.937Z,2.13
2022-11-02T03:28:20.213Z,1.40
2022-11-02T03:30:56.108Z,1.60
2022-11-02T03:33:28.947Z,1.80
2022-11-02T03:36:02.617Z,1.70
2022-11-02T03:38:37.937Z,1.90
2022-11-02T03:41:07.121Z,1.90
2022-11-02T03:43:37.103Z,1.80
2022-11-02T03:46:09.385Z,1.67
2022-11-02T03:48:41.629Z,1.80
2022-11-02T03:51:13.281Z,1.57
2022-11-02T03:53:47.033Z,1.73
2022-11-02T03:56:21.185Z,1.70
2022-11-02T03:58:49.037Z,1.60
2022-11-02T04:01:20.271Z,1.67
2022-11-02T04:03:48.826Z,1.57
2022-11-02T04:06:17.279Z,2.53
2022-11-02T04:08:47.421Z,2.17
2022-11-02T04:11:33.453Z,1.77
2022-11-02T04:14:18.911Z,1.60
2022-11-02T04:16:48.127Z,1.70
2022-11-02T04:19:35.754Z,1.93
2022-11-02T04:22:21.217Z,1.60
2022-11-02T04:25:06.619Z,1.83
2022-11-02T04:27:34.787Z,1.67
2022-11-02T04:30:02.651Z,1.73
2022-11-02T04:32:49.119Z,2.37
2022-11-02T04:35:17.206Z,1.90
2022-11-02T04:38:02.985Z,1.90
2022-11-02T04:40:31.040Z,1.73
2022-11-02T04:42:58.890Z,1.83
2022-11-02T04:45:27.205Z,1.87
2022-11-02T04:48:00.890Z,2.00
2022-11-02T04:50:29.046Z,1.80
2022-11-02T04:52:57.827Z,2.50
2022-11-02T04:55:26.135Z,2.00
2022-11-02T04:57:54.277Z,2.10
2022-11-02T05:00:22.872Z,2.07
2022-11-02T05:02:51.573Z,1.97
2022-11-02T05:05:20.847Z,1.73
2022-11-02T05:07:48.728Z,1.90
2022-11-02T05:10:16.635Z,2.43
2022-11-02T05:12:44.532Z,1.67
2022-11-02T05:15:12.382Z,2.20
2022-11-02T05:17:40.250Z,1.90
2022-11-02T05:20:08.765Z,2.00
2022-11-02T05:22:38.016Z,1.80
2022-11-02T05:25:06.440Z,1.80
2022-11-02T05:27:34.302Z,1.93
2022-11-02T05:30:02.111Z,2.20
2022-11-02T05:32:30.022Z,1.60
2022-11-02T05:34:57.924Z,2.27
2022-11-02T05:37:25.774Z,3.03
2022-11-02T05:39:54.971Z,1.80
2022-11-02T05:42:22.901Z,1.97
2022-11-02T05:44:50.780Z,2.00
2022-11-02T05:47:18.658Z,1.70
2022-11-02T05:49:46.539Z,1.83
2022-11-02T05:52:14.461Z,1.87
2022-11-02T05:54:42.452Z,1.90
2022-11-02T05:57:11.657Z,1.70
2022-11-02T05:59:39.496Z,1.80
2022-11-02T06:02:08.103Z,1.80
2022-11-02T06:04:35.955Z,1.83
2022-11-02T06:07:04.307Z,1.87
2022-11-02T06:09:32.157Z,2.10
2022-11-02T06:12:00.035Z,1.77
2022-11-02T06:14:29.228Z,1.70
2022-11-02T06:16:57.894Z,1.90
2022-11-02T06:19:25.755Z,1.93
2022-11-02T06:21:53.589Z,1.70
2022-11-02T06:24:21.403Z,1.90
2022-11-02T06:26:49.262Z,1.83
2022-11-02T06:29:17.154Z,2.00
2022-11-02T06:31:46.303Z,1.83
2022-11-02T06:34:14.236Z,2.10
2022-11-02T06:36:42.071Z,1.97
2022-11-02T06:39:09.894Z,2.00
2022-11-02T06:41:37.744Z,1.70
2022-11-02T06:44:05.883Z,1.90
2022-11-02T06:46:33.746Z,1.93
2022-11-02T06:49:03.108Z,1.80
2022-11-02T06:51:30.955Z,1.80
2022-11-02T06:53:58.815Z,3.43
2022-11-02T06:56:26.662Z,2.00
2022-11-02T06:58:54.548Z,2.67
2022-11-02T07:01:22.469Z,1.77
2022-11-02T07:03:50.497Z,1.83
2022-11-02T07:06:19.651Z,2.07
2022-11-02T07:08:47.517Z,2.03
2022-11-02T07:11:16.257Z,2.03
2022-11-02T07:13:44.492Z,1.87
2022-11-02T07:16:12.535Z,2.00
2022-11-02T07:18:41.280Z,2.00
2022-11-02T07:21:11.393Z,1.43
2022-11-02T07:23:40.709Z,2.13
2022-11-02T07:26:08.547Z,2.03
2022-11-02T07:28:38.132Z,2.53
2022-11-02T07:31:06.460Z,2.00
2022-11-02T07:33:34.342Z,3.20
2022-11-02T07:36:05.298Z,2.37
2022-11-02T07:38:33.182Z,2.83
2022-11-02T07:41:02.529Z,2.50
2022-11-02T07:43:30.561Z,1.70
2022-11-02T07:45:58.427Z,2.13
2022-11-02T07:48:26.305Z,2.00
2022-11-02T07:50:54.169Z,2.20
2022-11-02T07:53:22.287Z,2.77
2022-11-02T07:55:50.267Z,2.00
2022-11-02T07:58:19.541Z,3.10
2022-11-02T08:00:47.487Z,2.50
2022-11-02T08:03:15.673Z,2.70
2022-11-02T08:05:44.291Z,2.93
2022-11-02T08:08:14.741Z,3.07
2022-11-02T08:10:43.164Z,2.63
2022-11-02T08:13:12.529Z,2.30
2022-11-02T08:15:42.264Z,2.20
2022-11-02T08:18:14.318Z,2.63
2022-11-02T08:20:42.530Z,2.80
2022-11-02T08:23:11.245Z,3.77
2022-11-02T08:25:40.536Z,2.93
2022-11-02T08:28:12.357Z,3.10
2022-11-02T08:30:41.634Z,4.97
2022-11-02T08:33:13.450Z,4.17
2022-11-02T08:35:41.679Z,2.07
2022-11-02T08:38:10.360Z,4.30
2022-11-02T08:40:39.061Z,3.93
2022-11-02T08:43:08.693Z,3.77
2022-11-02T08:46:12.783Z,3.47
2022-11-02T08:48:28.083Z,2.70
2022-11-02T08:50:56.768Z,2.70
2022-11-02T08:53:24.641Z,3.20
2022-11-02T08:55:52.450Z,3.33
2022-11-02T08:58:20.374Z,2.37
2022-11-02T09:00:48.373Z,2.33
2022-11-02T09:03:20.606Z,3.53
2022-11-02T09:05:58.732Z,2.73
2022-11-02T09:08:27.763Z,3.37
2022-11-02T09:10:59.934Z,5.00
2022-11-02T09:13:28.111Z,3.40
2022-11-02T09:15:58.585Z,7.23
2022-11-02T09:18:26.412Z,5.80
2022-11-02T09:20:55.855Z,4.23
2022-11-02T09:23:24.441Z,4.20
2022-11-02T09:25:52.340Z,3.40
2022-11-02T09:28:20.180Z,1.97
2022-11-02T09:30:48.089Z,2.23
2022-11-02T09:33:16.626Z,2.50
2022-11-02T09:35:46.271Z,2.80
2022-11-02T09:38:16.023Z,5.10
2022-11-02T09:40:47.151Z,3.00
2022-11-02T09:43:24.507Z,2.43
2022-11-02T09:45:59.040Z,3.20
2022-11-02T09:48:31.277Z,2.20
2022-11-02T09:51:05.586Z,2.47
2022-11-02T09:53:51.649Z,1.70
2022-11-02T09:56:20.755Z,3.20
2022-11-02T09:58:54.619Z,3.40
2022-11-02T10:01:35.418Z,2.30
2022-11-02T10:04:25.919Z,2.10
2022-11-02T10:07:02.584Z,2.17
2022-11-02T10:09:36.347Z,2.10
2022-11-02T10:12:12.905Z,2.40
2022-11-02T10:14:47.371Z,3.20
2022-11-02T10:17:19.028Z,2.27
2022-11-02T10:19:52.119Z,2.30
2022-11-02T10:22:21.317Z,2.73
2022-11-02T10:24:54.302Z,2.50
2022-11-02T10:27:27.207Z,2.50
2022-11-02T10:30:00.123Z,2.77
2022-11-02T10:32:27.995Z,3.00
2022-11-02T10:34:59.238Z,3.13
2022-11-02T10:37:52.006Z,2.40
2022-11-02T10:40:40.810Z,2.73
2022-11-02T10:43:20.088Z,2.13
2022-11-02T10:46:04.203Z,2.40
2022-11-02T10:48:40.735Z,1.90
2022-11-02T10:51:10.397Z,2.50
2022-11-02T10:53:42.483Z,2.73
2022-11-02T10:56:18.357Z,2.70
2022-11-02T10:58:52.215Z,4.33
2022-11-02T11:01:20.263Z,3.70
2022-11-02T11:03:56.634Z,3.00
2022-11-02T11:06:25.676Z,4.37
2022-11-02T11:08:53.795Z,5.80
2022-11-02T11:11:26.385Z,2.83
2022-11-02T11:16:50.776Z,2.40
2022-11-02T11:19:44.417Z,1.73
2022-11-02T11:22:27.072Z,2.23
2022-11-02T11:25:07.551Z,1.87
2022-11-02T11:27:46.246Z,1.47
2022-11-02T11:30:58.510Z,1.80
2022-11-02T11:33:20.415Z,1.63
2022-11-02T11:35:51.484Z,1.90
2022-11-02T11:38:21.765Z,3.37
2022-11-02T11:40:54.326Z,3.23
2022-11-02T11:43:26.945Z,1.97
2022-11-02T11:46:02.096Z,2.10
2022-11-02T11:48:37.944Z,1.93
2022-11-02T11:51:22.892Z,1.97
2022-11-02T11:54:07.875Z,2.10
2022-11-02T11:56:36.174Z,2.33
2022-11-02T11:59:05.394Z,2.20
2022-11-02T12:01:41.069Z,1.83
2022-11-02T12:04:09.535Z,3.70
2022-11-02T12:06:46.313Z,2.97
2022-11-02T12:09:26.337Z,2.60
2022-11-02T12:12:03.476Z,2.10
2022-11-02T12:14:43.016Z,2.10
2022-11-02T12:17:27.981Z,2.87
2022-11-02T12:20:07.465Z,2.13
2022-11-02T12:22:45.743Z,2.10
2022-11-02T12:25:23.467Z,2.10
2022-11-02T12:27:59.048Z,2.20
2022-11-02T12:30:36.947Z,2.00
2022-11-02T12:33:22.923Z,2.17
2022-11-02T12:36:11.738Z,1.97
2022-11-02T12:38:53.274Z,2.07
2022-11-02T12:41:36.592Z,2.13
2022-11-02T12:44:18.528Z,3.40
2022-11-02T12:46:56.905Z,2.50
2022-11-02T12:49:36.407Z,8.00
2022-11-02T12:52:14.255Z,4.40
2022-11-02T12:54:46.854Z,2.97
2022-11-02T12:57:18.534Z,2.07
2022-11-02T12:59:47.834Z,2.83
2022-11-02T13:02:20.752Z,2.83
2022-11-02T13:04:53.324Z,2.10
2022-11-02T13:07:27.562Z,2.73
2022-11-02T13:10:01.729Z,1.97
2022-11-02T13:12:33.287Z,2.37
2022-11-02T13:15:02.411Z,2.73
2022-11-02T13:17:39.895Z,2.90
2022-11-02T13:20:17.118Z,2.00
2022-11-02T13:22:47.723Z,3.40
2022-11-02T13:25:19.335Z,3.07
2022-11-02T13:27:52.620Z,4.07
2022-11-02T13:30:21.385Z,2.47
2022-11-02T13:32:55.585Z,2.53
2022-11-02T13:35:33.098Z,2.17
2022-11-02T13:38:06.902Z,2.57
2022-11-02T13:40:42.039Z,2.00
2022-11-02T13:43:32.829Z,2.40
2022-11-02T13:46:26.427Z,3.00
2022-11-02T13:49:02.591Z,2.37
2022-11-02T13:51:37.563Z,2.03
2022-11-02T13:54:12.952Z,2.10
2022-11-02T13:56:41.661Z,2.37
2022-11-02T13:59:19.140Z,3.13
2022-11-02T14:01:47.495Z,3.30
2022-11-02T14:04:17.470Z,2.43
2022-11-02T14:06:49.632Z,3.70
2022-11-02T14:09:28.231Z,4.37
2022-11-02T14:12:28.006Z,3.10
2022-11-02T14:15:33.116Z,2.30
2022-11-02T14:18:23.865Z,2.97
2022-11-02T14:20:53.193Z,2.70
2022-11-02T14:23:39.644Z,2.80
2022-11-02T14:26:34.683Z,3.83
2022-11-02T14:29:26.473Z,3.13
2022-11-02T14:32:03.464Z,2.10
2022-11-02T14:34:51.278Z,3.13
2022-11-02T14:37:44.452Z,2.30
2022-11-02T14:40:25.581Z,1.97
2022-11-02T14:43:10.737Z,2.13
2022-11-02T14:45:53.645Z,3.73
2022-11-02T14:48:21.530Z,4.67
2022-11-02T14:51:01.718Z,2.93
2022-11-02T14:53:33.824Z,2.83
2022-11-02T14:56:01.774Z,3.43
2022-11-02T14:58:34.085Z,4.10
2022-11-02T15:01:04.565Z,4.00
2022-11-02T15:03:38.893Z,4.30
2022-11-02T15:06:14.455Z,4.43
2022-11-02T15:08:53.386Z,4.10
2022-11-02T15:11:48.141Z,4.50
2022-11-02T15:15:00.243Z,6.20
2022-11-02T15:17:59.640Z,4.97
2022-11-02T15:20:32.665Z,8.87
2022-11-02T15:23:31.240Z,12.40
2022-11-02T15:26:06.085Z,13.90
2022-11-02T15:28:34.858Z,10.70
2022-11-02T15:31:06.272Z,6.30
2022-11-02T15:33:40.585Z,3.13
2022-11-02T15:36:15.527Z,2.70
2022-11-02T15:38:49.268Z,2.40
2022-11-02T15:41:27.229Z,2.77
2022-11-02T15:44:13.031Z,2.93
2022-11-02T15:46:53.501Z,2.70
2022-11-02T15:49:34.814Z,2.70
2022-11-02T15:52:11.074Z,3.57
2022-11-02T15:54:58.379Z,4.40
2022-11-02T15:57:37.684Z,4.60
2022-11-02T16:00:16.756Z,3.70
2022-11-02T16:02:48.043Z,3.70
2022-11-02T16:05:22.748Z,3.00
2022-11-02T16:10:40.473Z,3.20
2022-11-02T16:13:18.210Z,3.93
2022-11-02T16:15:46.785Z,2.93
2022-11-02T16:18:25.078Z,3.00
2022-11-02T16:20:55.070Z,2.47
2022-11-02T16:23:26.089Z,3.00
2022-11-02T16:25:55.414Z,2.93
2022-11-02T16:28:26.899Z,2.50
2022-11-02T16:31:06.502Z,3.17
2022-11-02T16:33:40.878Z,3.63
2022-11-02T16:36:09.787Z,3.50
2022-11-02T16:38:38.639Z,3.27
2022-11-02T16:41:09.875Z,3.90
2022-11-02T16:43:45.842Z,4.20
2022-11-02T16:46:18.081Z,3.30
2022-11-02T16:49:16.381Z,3.67
2022-11-02T16:51:51.195Z,3.10
2022-11-02T16:54:31.579Z,3.33
2022-11-02T16:57:08.588Z,3.30
2022-11-02T16:59:48.925Z,2.57
2022-11-02T17:02:17.113Z,2.90
2022-11-02T17:04:48.265Z,2.33
2022-11-02T17:07:22.104Z,2.60
2022-11-02T17:09:53.923Z,2.40
2022-11-02T17:12:33.697Z,2.50
2022-11-02T17:15:05.583Z,2.40
2022-11-02T17:17:39.299Z,2.50
2022-11-02T17:20:19.166Z,4.03
2022-11-02T17:22:58.682Z,3.10
2022-11-02T17:25:28.784Z,3.50
2022-11-02T17:27:57.739Z,3.50
2022-11-02T17:30:47.310Z,2.50
2022-11-02T17:33:24.922Z,3.20
2022-11-02T17:35:54.565Z,3.87
2022-11-02T17:38:25.639Z,3.97
2022-11-02T17:40:53.842Z,3.00
2022-11-02T17:43:21.717Z,3.63
2022-11-02T17:45:57.258Z,3.30
2022-11-02T17:48:25.760Z,3.80
2022-11-02T17:50:55.264Z,3.80
2022-11-02T17:53:24.056Z,3.83
2022-11-02T17:55:52.182Z,3.80
2022-11-02T17:58:20.056Z,3.30
2022-11-02T18:00:48.026Z,3.20
2022-11-02T18:03:22.385Z,3.37
2022-11-02T18:05:55.824Z,3.00
2022-11-02T18:08:26.761Z,3.13
2022-11-02T18:10:54.806Z,3.07
2022-11-02T18:13:24.459Z,3.63
2022-11-02T18:15:52.355Z,5.10
2022-11-02T18:18:21.558Z,4.50
2022-11-02T18:20:49.485Z,3.70
2022-11-02T18:23:19.640Z,3.90
2022-11-02T18:25:47.761Z,4.23
2022-11-02T18:28:15.599Z,3.30
2022-11-02T18:30:44.494Z,2.93
2022-11-02T18:33:14.107Z,2.67
2022-11-02T18:35:44.221Z,3.27
2022-11-02T18:38:12.836Z,2.73
2022-11-02T18:40:40.710Z,2.60
2022-11-02T18:43:09.030Z,2.43
2022-11-02T18:45:37.294Z,2.63
2022-11-02T18:48:05.644Z,2.70
2022-11-02T18:50:33.897Z,3.90
2022-11-02T18:53:03.128Z,4.00
2022-11-02T18:55:31.074Z,4.27
2022-11-02T18:57:59.049Z,3.87
2022-11-02T19:00:26.871Z,3.47
2022-11-02T19:02:54.705Z,3.60
2022-11-02T19:05:40.002Z,3.50
2022-11-02T19:08:28.406Z,3.40
2022-11-02T19:10:56.299Z,4.00
2022-11-02T19:13:24.129Z,3.73
2022-11-02T19:15:51.929Z,4.20
2022-11-02T19:18:19.761Z,4.37
2022-11-02T19:20:47.634Z,5.10
2022-11-02T19:23:16.831Z,4.40
2022-11-02T19:25:51.260Z,5.13
2022-11-02T19:28:19.247Z,4.97
2022-11-02T19:30:47.138Z,4.00
2022-11-02T19:33:15.027Z,4.30
2022-11-02T19:35:42.837Z,3.60
2022-11-02T19:38:10.737Z,3.60
2022-11-02T19:40:39.885Z,3.67
2022-11-02T19:43:08.222Z,3.40
2022-11-02T19:45:36.189Z,3.57
2022-11-02T19:48:04.481Z,3.40
2022-11-02T19:50:32.643Z,3.87
2022-11-02T19:53:01.252Z,3.70
2022-11-02T19:55:29.701Z,4.03
2022-11-02T19:57:58.957Z,3.80
2022-11-02T20:00:26.812Z,5.47
2022-11-02T20:02:54.873Z,5.03
2022-11-02T20:05:22.801Z,5.30
2022-11-02T20:07:52.449Z,4.20
2022-11-02T20:10:20.314Z,4.47
2022-11-02T20:12:48.184Z,3.93
2022-11-02T20:15:17.466Z,5.10
2022-11-02T20:18:05.629Z,4.13
2022-11-02T20:20:33.264Z,5.10
2022-11-02T20:23:01.340Z,6.10
2022-11-02T20:25:29.295Z,4.10
2022-11-02T20:27:57.161Z,2.67
2022-11-02T20:30:26.353Z,4.20
2022-11-02T20:32:54.222Z,3.40
2022-11-02T20:35:25.483Z,4.40
2022-11-02T20:37:54.555Z,4.93
2022-11-02T20:40:22.454Z,4.20
2022-11-02T20:42:50.834Z,4.30
2022-11-02T20:45:18.904Z,4.67
2022-11-02T20:47:48.089Z,4.50
2022-11-02T20:50:18.334Z,4.10
2022-11-02T20:52:47.483Z,3.80
2022-11-02T20:55:15.413Z,3.13
2022-11-02T20:57:43.262Z,4.37
2022-11-02T21:00:13.086Z,3.63
2022-11-02T21:02:40.952Z,3.80
2022-11-02T21:05:10.688Z,3.57
2022-11-02T21:07:38.521Z,3.50
2022-11-02T21:10:07.757Z,4.30
2022-11-02T21:12:53.244Z,4.07
2022-11-02T21:15:21.066Z,4.17
2022-11-02T21:17:48.957Z,3.90
2022-11-02T21:20:33.613Z,4.20
2022-11-02T21:23:02.797Z,4.13
2022-11-02T21:25:31.136Z,3.63
2022-11-02T21:27:58.984Z,4.50
2022-11-02T21:30:27.584Z,3.20
2022-11-02T21:32:55.753Z,3.47
2022-11-02T21:35:25.130Z,3.33
2022-11-02T21:37:59.267Z,2.90
2022-11-02T21:40:30.207Z,3.53
2022-11-02T21:42:58.033Z,3.53
2022-11-02T21:45:26.444Z,3.30
2022-11-02T21:47:54.402Z,3.50
2022-11-02T21:50:22.240Z,3.40
2022-11-02T21:52:51.431Z,3.47
2022-11-02T21:55:19.271Z,3.10
2022-11-02T21:57:47.299Z,2.60
2022-11-02T22:00:16.302Z,2.73
2022-11-02T22:02:43.267Z,2.20
2022-11-02T22:05:31.205Z,2.70
2022-11-02T22:08:17.704Z,2.50
2022-11-02T22:10:45.628Z,2.70
2022-11-02T22:13:30.914Z,2.20
2022-11-02T22:15:58.771Z,2.20
2022-11-02T22:18:26.611Z,1.80
2022-11-02T22:20:55.600Z,2.30
2022-11-02T22:23:24.781Z,2.27
2022-11-02T22:25:58.993Z,1.70
2022-11-02T22:28:30.407Z,2.47
2022-11-02T22:30:58.401Z,1.80
2022-11-02T22:33:26.683Z,2.03
2022-11-02T22:35:54.570Z,2.07
2022-11-02T22:38:41.307Z,2.17
2022-11-02T22:41:09.168Z,2.17
2022-11-02T22:43:36.997Z,2.33
2022-11-02T22:46:06.593Z,2.13
2022-11-02T22:48:35.469Z,1.90
2022-11-02T22:51:04.287Z,2.30
2022-11-02T22:53:34.205Z,2.17
2022-11-02T22:56:03.578Z,2.13
2022-11-02T22:58:32.848Z,3.03
2022-11-02T23:01:01.037Z,2.23
2022-11-02T23:03:31.549Z,1.97
2022-11-02T23:05:59.570Z,2.00
2022-11-02T23:11:14.930Z,2.00
2022-11-02T23:13:43.631Z,2.27
2022-11-02T23:16:24.845Z,1.80
2022-11-02T23:19:18.923Z,2.27
2022-11-02T23:22:09.134Z,1.90
2022-11-02T23:24:54.387Z,1.87
2022-11-02T23:27:23.643Z,1.97
2022-11-02T23:30:09.128Z,1.73
2022-11-02T23:32:37.545Z,1.97
2022-11-02T23:35:23.696Z,2.17
2022-11-02T23:38:01.036Z,1.87
2022-11-02T23:40:28.975Z,1.87
2022-11-02T23:42:58.309Z,1.80
2022-11-02T23:45:26.147Z,1.87
2022-11-02T23:48:01.256Z,1.60
2022-11-02T23:50:49.207Z,1.57
2022-11-02T23:53:33.218Z,1.70
2022-11-02T23:56:18.546Z,1.83
2022-11-02T23:58:48.114Z,1.90
